BIKF/KEF METAR and TAF weather

Enter ICAO airport designator
Station Type Date Time Source
BIKF METAR 2020/11/28 20:00 UTC NOAA

BIKF 282000Z 17011KT 9999 -SHRASN FEW009CB SCT019TCU BKN025 02/01 Q1001 R19/190068


Station Type Date Time Source
BIKF Decoded METAR 2020/11/28 20:00 UTC NOAA

Keflavikurflugvollur, Iceland (BIKF) 63-58N 022-36W 54M
Nov 28, 2020 - 03:00 PM EST / 2020.11.28 2000 UTC
Wind: from the S (170 degrees) at 13 MPH (11 KT):0
Visibility: greater than 7 mile(s):0
Sky conditions: mostly cloudy
Weather: light rain showers, snow; Cumulonimbus clouds, towering cumulus clouds observed
Temperature: 35 F (2 C)
Windchill: 26 F (-3 C):1
Dew Point: 33 F (1 C)
Relative Humidity: 93%
Pressure (altimeter): 29.56 in. Hg (1001 hPa)
ob: BIKF 282000Z 17011KT 9999 -SHRASN FEW009CB SCT019TCU BKN025 02/01 Q1001 R19/190068
cycle: 20

Station Type Date Time Source
BIKF TAF 2020/11/28 21:55 UTC NOAA

TAF BIKF 281951Z 2821/2921 17015KT 3500 -SNRA SCT007 BKN015 OVC025 TX04/2912Z TN00/2921Z
BECMG 2822/2900 11012KT 9000 -RA PROB40
TEMPO 2823/2903 2500 RADZ BKN010
BECMG 2904/2906 33015KT -SHRA SCT015 BKN022

Example: see airport list